Terminal Aerodrome Forecast
Issued by NWS Pittsburgh, PA

Current Version | Previous Version | Graphics & Text | Print | Product List | Glossary On
Versions: 1 2 3 4 5 6 7 8 9 10 11 12 13 14 15 16 17 18 19 20 21 22 23 24 25 26 27 28
000
FTUS41 KPBZ 172300
TAFPIT
TAF
KPIT 172323Z 1800/1906 34005KT P6SM SCT080
     FM180700 VRB03KT 4SM BR SKC
     FM180800 VRB02KT 2SM BR BKN015
     FM181300 VRB04KT P6SM BKN040=

USA.gov is the U.S. government's official web portal to all federal, state and local government web resources and services.